Weather History for Effingham, IL

Change the Weather History Date:

Saturday, March 2, 2013

  Actual Average (KMTO) Record (KMTO)
Temperature  
Mean Temperature 28 °F 37 °F  
Max Temperature 31 °F 46 °F 74 °F (1992)
Min Temperature 24 °F 29 °F 3 °F (1980)
Degree Days  
Heating Degree Days 37 28  
Month to date heating degree days 56  
Since 1 July heating degree days 4260  
Cooling Degree Days 0 0  
Month to date cooling degree days 0  
Year to date cooling degree days 0  
Moisture  
Dew Point 21 °F    
Average Humidity 74    
Maximum Humidity 83    
Minimum Humidity 57    
Precipitation  
Precipitation 0.00 in 0.05 in 0.38 in (1970)
Month to date precipitation 0.11  
Year to date precipitation 4.09  
Sea Level Pressure  
Sea Level Pressure 30.17 in    
Wind  
Wind Speed 10 mph (NNW)    
Max Wind Speed 16 mph    
Max Gust Speed 21 mph    
Visibility 9 miles    
Events Snow    
T = Trace of Precipitation, MM = Missing Value Source: NWS Daily Summary

Daily Weather History Graph

Daily Weather History Graph

Search for Another Location

Airport:

Trip Planner

Search our weather history database for the weather conditions in past years. The results will help you decide how hot, cold, wet, or windy it might be!

Date:

Astronomy

Mar. 02, 2013 Rise Set
Actual Time 6:24 AM CST 5:48 PM CST
Civil Twilight 5:58 AM CST 6:14 PM CST
Nautical Twilight 5:27 AM CST 6:45 PM CST
Astronomical Twilight 4:56 AM CST 7:16 PM CST
Moon 11:24 PM CST (3/2) 8:55 AM CST (3/2)
Length of Visible Light 12h 16m
Length of Day
11h 23m
Waning Gibbous, 74% of the Moon is Illuminated
Mar 2
Waning Gibbous
Mar 4
Last Quarter
Mar 11
New
Mar 19
First Quarter
Mar 27
Full

Hourly Weather History & Observations

Time (CST) Temp. Windchill Dew Point Humidity Pressure Visibility Wind Dir Wind Speed Gust Speed Precip Events Conditions
12:15 AM 29.8 °F 22.2 °F 25.3 °F 83% 30.14 in 10.0 mi North 8.1 mph - N/A Snow Light Snow
12:35 AM 29.5 °F 20.4 °F 25.0 °F 83% 30.14 in 10.0 mi NNW 10.4 mph - N/A Snow Light Snow
12:55 AM 29.3 °F 20.2 °F 24.6 °F 83% 30.14 in 10.0 mi North 10.4 mph - N/A Snow Light Snow
1:15 AM 29.3 °F 20.2 °F 24.8 °F 83% 30.14 in 10.0 mi NNW 10.4 mph - N/A   Overcast
1:35 AM 29.1 °F 20.0 °F 24.6 °F 83% 30.14 in 10.0 mi North 10.4 mph - N/A Snow Light Snow
1:55 AM 29.1 °F 21.3 °F 24.6 °F 83% 30.13 in 10.0 mi North 8.1 mph - N/A   Overcast
2:15 AM 28.8 °F 19.0 °F 23.5 °F 81% 30.13 in 10.0 mi North 11.5 mph 17.3 mph N/A   Overcast
2:35 AM 28.4 °F 19.1 °F 23.5 °F 82% 30.13 in 10.0 mi NNW 10.4 mph 17.3 mph N/A   Overcast
2:55 AM 28.4 °F 19.1 °F 23.2 °F 81% 30.13 in 10.0 mi North 10.4 mph 17.3 mph N/A   Overcast
3:15 AM 28.0 °F 18.1 °F 23.0 °F 81% 30.13 in 10.0 mi North 11.5 mph - N/A   Overcast
3:35 AM 28.2 °F 18.3 °F 23.0 °F 81% 30.12 in 10.0 mi North 11.5 mph - N/A   Overcast
3:55 AM 28.2 °F 18.3 °F 23.4 °F 82% 30.12 in 10.0 mi North 11.5 mph 18.4 mph N/A   Overcast
4:15 AM 28.2 °F 18.3 °F 23.5 °F 83% 30.13 in 10.0 mi NNW 11.5 mph 19.6 mph N/A   Overcast
4:35 AM 28.2 °F 18.9 °F 23.5 °F 83% 30.13 in 10.0 mi NNW 10.4 mph - N/A   Overcast
4:55 AM 28.0 °F 18.6 °F 23.0 °F 81% 30.13 in 10.0 mi NNW 10.4 mph - N/A Snow Light Snow
5:15 AM 27.9 °F 17.8 °F 23.4 °F 83% 30.14 in 7.0 mi NNW 11.5 mph - N/A Snow Light Snow
5:35 AM 27.9 °F 17.8 °F 23.0 °F 82% 30.14 in 10.0 mi NNW 11.5 mph - N/A Snow Light Snow
5:55 AM 28.0 °F 20.0 °F 23.4 °F 83% 30.14 in 10.0 mi NNW 8.1 mph - N/A   Overcast
6:15 AM 27.9 °F 17.8 °F 22.6 °F 81% 30.14 in 10.0 mi NNW 11.5 mph - N/A   Overcast
6:35 AM 28.0 °F 18.6 °F 22.8 °F 81% 30.15 in 10.0 mi NNW 10.4 mph - N/A   Overcast
6:55 AM 28.2 °F 19.5 °F 23.2 °F 81% 30.15 in 10.0 mi NNW 9.2 mph - N/A   Overcast
7:15 AM 28.2 °F 18.3 °F 23.0 °F 81% 30.16 in 10.0 mi NNW 11.5 mph - N/A Snow Light Snow
7:35 AM 28.2 °F 18.9 °F 23.5 °F 83% 30.16 in 10.0 mi NW 10.4 mph - N/A Snow Light Snow
7:55 AM 28.0 °F 18.6 °F 23.2 °F 82% 30.17 in 5.0 mi NNW 10.4 mph - N/A Snow Light Snow
8:15 AM 27.9 °F 17.8 °F 23.0 °F 82% 30.18 in 3.0 mi NNW 11.5 mph - N/A Snow Light Snow
8:35 AM 27.9 °F 18.4 °F 23.2 °F 83% 30.18 in 4.0 mi NNW 10.4 mph - N/A Snow Light Snow
8:55 AM 27.9 °F 17.3 °F 23.2 °F 83% 30.18 in 4.0 mi NW 12.7 mph - N/A Snow Light Snow
9:15 AM 27.7 °F 18.2 °F 23.0 °F 83% 30.18 in 3.0 mi NNW 10.4 mph - N/A Snow Light Snow
9:35 AM 28.0 °F 18.6 °F 23.5 °F 83% 30.18 in 3.0 mi NNW 10.4 mph - N/A Snow Light Snow
9:55 AM 28.2 °F 18.9 °F 23.7 °F 83% 30.18 in 4.0 mi NW 10.4 mph - N/A Snow Light Snow
10:15 AM 28.4 °F 18.5 °F 23.2 °F 81% 30.18 in 5.0 mi NW 11.5 mph - N/A Snow Light Snow
10:35 AM 28.4 °F 18.0 °F 23.0 °F 80% 30.18 in 5.0 mi NW 12.7 mph - N/A Snow Light Snow
10:55 AM 29.1 °F 20.6 °F 23.4 °F 79% 30.19 in 5.0 mi NNW 9.2 mph - N/A Snow Light Snow
11:15 AM 29.1 °F 18.4 °F 23.5 °F 80% 30.19 in 5.0 mi NW 13.8 mph - N/A Snow Light Snow
11:35 AM 29.3 °F 19.6 °F 23.7 °F 80% 30.18 in 5.0 mi NNW 11.5 mph - N/A Snow Light Snow
11:55 AM 29.8 °F 20.9 °F 24.1 °F 79% 30.18 in 7.0 mi NNW 10.4 mph - N/A Snow Light Snow
12:15 PM 30.4 °F 19.1 °F 23.5 °F 76% 30.17 in 7.0 mi NW 16.1 mph - N/A Snow Light Snow
12:35 PM 30.7 °F 20.9 °F 24.6 °F 78% 30.17 in 10.0 mi NW 12.7 mph - N/A Snow Light Snow
12:55 PM 30.9 °F 21.2 °F 23.2 °F 73% 30.16 in 10.0 mi NNW 12.7 mph 16.1 mph N/A   Overcast
1:15 PM 31.8 °F 22.8 °F 23.7 °F 72% 30.16 in 10.0 mi NW 11.5 mph - N/A   Overcast
1:35 PM 30.9 °F 20.2 °F 24.1 °F 76% 30.16 in 7.0 mi NW 15.0 mph - N/A Snow Light Snow
1:55 PM 30.9 °F 21.7 °F 23.0 °F 72% 30.16 in 10.0 mi NNW 11.5 mph - N/A Snow Light Snow
2:15 PM 30.2 °F 21.3 °F 23.4 °F 76% 30.16 in 4.0 mi NNW 10.4 mph - N/A Snow Light Snow
2:35 PM 31.3 °F 21.6 °F 22.3 °F 69% 30.15 in 7.0 mi NW 12.7 mph - N/A Snow Light Snow
2:55 PM 31.8 °F 22.3 °F 20.5 °F 63% 30.16 in 10.0 mi NNW 12.7 mph - N/A   Overcast
3:15 PM 31.6 °F 23.1 °F 20.3 °F 63% 30.16 in 10.0 mi NNW 10.4 mph - N/A Snow Light Snow
3:35 PM 31.1 °F 20.9 °F 20.7 °F 65% 30.16 in 10.0 mi NW 13.8 mph 20.7 mph N/A Snow Light Snow
3:55 PM 31.3 °F 20.7 °F 20.1 °F 63% 30.17 in 10.0 mi NNW 15.0 mph - N/A   Overcast
4:15 PM 31.8 °F 22.3 °F 19.9 °F 62% 30.17 in 10.0 mi NNW 12.7 mph - N/A   Overcast
4:35 PM 31.3 °F 23.3 °F 19.2 °F 61% 30.17 in 10.0 mi NNW 9.2 mph 16.1 mph N/A   Overcast
4:55 PM 31.3 °F 23.3 °F 17.4 °F 57% 30.17 in 10.0 mi NNW 9.2 mph - N/A   Overcast
5:15 PM 31.1 °F 24.5 °F 17.4 °F 57% 30.17 in 10.0 mi NNW 6.9 mph - N/A   Overcast
5:35 PM 31.1 °F 23.7 °F 18.5 °F 60% 30.18 in 10.0 mi NNW 8.1 mph - N/A   Overcast
5:55 PM 30.4 °F 21.0 °F 17.4 °F 59% 30.18 in 10.0 mi NW 11.5 mph - N/A   Overcast
6:15 PM 29.8 °F 22.2 °F 16.2 °F 57% 30.18 in 10.0 mi NW 8.1 mph - N/A   Mostly Cloudy
6:35 PM 29.8 °F 22.2 °F 16.5 °F 58% 30.18 in 10.0 mi NW 8.1 mph - N/A   Mostly Cloudy
6:55 PM 29.7 °F 21.3 °F 16.5 °F 58% 30.19 in 10.0 mi NW 9.2 mph - N/A   Overcast
7:15 PM 29.3 °F 22.3 °F 16.9 °F 60% 30.19 in 10.0 mi NW 6.9 mph - N/A   Overcast
7:35 PM 29.3 °F 21.5 °F 17.4 °F 61% 30.18 in 10.0 mi NW 8.1 mph - N/A   Overcast
7:55 PM 29.3 °F 21.5 °F 17.8 °F 62% 30.19 in 10.0 mi NW 8.1 mph - N/A   Overcast
8:15 PM 28.9 °F 21.1 °F 17.8 °F 63% 30.19 in 10.0 mi NW 8.1 mph - N/A   Overcast
8:35 PM 28.4 °F 19.1 °F 17.6 °F 64% 30.19 in 10.0 mi NW 10.4 mph - N/A   Overcast
8:55 PM 28.0 °F 18.1 °F 18.7 °F 68% 30.20 in 10.0 mi NW 11.5 mph - N/A   Mostly Cloudy
9:15 PM 27.3 °F 18.4 °F 19.2 °F 72% 30.19 in 10.0 mi NW 9.2 mph - N/A   Scattered Clouds
9:35 PM 26.6 °F 17.5 °F 19.4 °F 74% 30.19 in 10.0 mi NW 9.2 mph - N/A   Clear
9:55 PM 26.6 °F 19.1 °F 18.3 °F 71% 30.19 in 10.0 mi NW 6.9 mph - N/A   Clear
10:15 PM 26.6 °F 18.2 °F 18.5 °F 71% 30.19 in 10.0 mi NW 8.1 mph - N/A   Clear
10:35 PM 26.2 °F 17.8 °F 18.0 °F 71% 30.19 in 10.0 mi NNW 8.1 mph - N/A   Clear
10:55 PM 25.9 °F 18.2 °F 16.7 °F 68% 30.20 in 10.0 mi NNW 6.9 mph - N/A   Clear
11:15 PM 25.5 °F 18.7 °F 16.9 °F 70% 30.19 in 10.0 mi NNW 5.8 mph - N/A   Clear
11:35 PM 25.3 °F 17.6 °F 16.7 °F 70% 30.19 in 10.0 mi NNW 6.9 mph - N/A   Clear
11:55 PM 24.8 °F 19.1 °F 16.7 °F 71% 30.18 in 10.0 mi North 4.6 mph - N/A   Clear